Norfolk, NE

6:25 PM CDT on October 22, 2014 (GMT -0500)
West Central - Norfolk | Change Station
CLOSE
Current Station
Personal Weather Station
Location: Norfolk, NE
Elevation: 1640 ft
Nearby Weather Stations

Elev 1640 ft 42.04 °N, 97.45 °W | Updated 27 seconds ago

Rain
Rain
59.3 °F
Feels Like 59.3 °F
N
1.0
Wind Variable Wind from WSW
Gusts 2.0 mph

Today
High -- | Low -- °F
--% Chance of Precip.
Yesterday
High -- | Low -- °F
Precip. -- in
7:50 AM 6:37 PM
Waning Crescent, 1% visible
Pressure 29.99 in
Visibility 6.0 miles
Clouds Overcast 8500 ft
Dew Point 58 °F
Humidity 94%
Rainfall 0.00 in
Snow Depth Not available.
UV 0 out of 12
Pollen 1.60 out of 12
Air Quality Not available.
Flu Activity Sporadic
METAR KOFK 222256Z AUTO 22005KT 6SM RA BR OVC085 15/14 A3000 RMK AO2 SLP156 P0022 T01500139

More Conditions Fewer Conditions

Pressure 29.99 in
Visibility 6.0 miles
Clouds Overcast 8500 ft
Dew Point 58 °F
Humidity 94%
Rainfall 0.00 in
Snow Depth Not available.
UV 0 out of 12
Pollen 1.60 out of 12
Air Quality Not available.
Flu Activity Sporadic
METAR KOFK 222256Z AUTO 22005KT 6SM RA BR OVC085 15/14 A3000 RMK AO2 SLP156 P0022 T01500139

More Conditions Fewer Conditions

10-Day Weather Forecast

Almanac

Astronomy

Oct. 22, 2014 Rise Set
Actual Time 7:50 AM CDT 6:37 PM CDT
Civil Twilight 7:21 AM CDT 7:05 PM CDT
Nautical Twilight 6:49 AM CDT 7:38 PM CDT
Astronomical Twilight 6:16 AM CDT 8:10 PM CDT
Moon 6:31 AM CDT 6:05 PM CDT
Length of Visible Light 11h 43m
Length of Day
10h 46m
Tomorrow will be 2m 39s shorter.
Waning Crescent, 1% of the Moon is Illuminated
Today
Waning Crescent
Oct 23
New
Oct 30
First Quarter
Nov 6
Full
Nov 14
Last Quarter

Today's Extremes

State Highs State Lows

Community

WunderPhotos

Upload Photos

1,764,078 photos uploaded!

WunderBlogs® & News

Nearby

Snow Depth

Station Depth Elevation
No new snow has been reported.

Earthquake Activity

City Distance Mag. Time & Date
No recent earthquake activity has been reported nearby.
Minimum magnitude displayed is 2.5.

Coastal Water Temperatures

Place Temperature
No Stations Reporting

Nearby Weather Stations